sensor_id;sensor_type;location;lat;lon;timestamp;temperature;humidity
8420;DHT22;4247;48.550;8.822;2023-08-20T00:00:30;21.90;99.90
8420;DHT22;4247;48.550;8.822;2023-08-20T00:02:59;21.90;99.90
8420;DHT22;4247;48.550;8.822;2023-08-20T00:05:30;21.80;99.90
8420;DHT22;4247;48.550;8.822;2023-08-20T00:07:56;21.80;99.90
8420;DHT22;4247;48.550;8.822;2023-08-20T00:10:25;21.70;99.90
8420;DHT22;4247;48.550;8.822;2023-08-20T00:12:51;21.70;99.90
8420;DHT22;4247;48.550;8.822;2023-08-20T00:15:18;21.70;99.90
8420;DHT22;4247;48.550;8.822;2023-08-20T00:17:45;21.70;99.90
8420;DHT22;4247;48.550;8.822;2023-08-20T00:20:14;21.70;99.90
8420;DHT22;4247;48.550;8.822;2023-08-20T00:22:42;21.60;99.90
8420;DHT22;4247;48.550;8.822;2023-08-20T00:25:11;21.60;99.90
8420;DHT22;4247;48.550;8.822;2023-08-20T00:27:40;21.60;99.90
8420;DHT22;4247;48.550;8.822;2023-08-20T00:30:07;21.60;99.90
8420;DHT22;4247;48.550;8.822;2023-08-20T00:32:34;21.60;99.90
8420;DHT22;4247;48.550;8.822;2023-08-20T00:35:02;21.50;99.90
8420;DHT22;4247;48.550;8.822;2023-08-20T00:37:29;21.50;99.90
8420;DHT22;4247;48.550;8.822;2023-08-20T00:39:56;21.50;99.90
8420;DHT22;4247;48.550;8.822;2023-08-20T00:42:23;21.40;99.90
8420;DHT22;4247;48.550;8.822;2023-08-20T00:44:52;21.50;99.90
8420;DHT22;4247;48.550;8.822;2023-08-20T00:47:19;21.50;99.90
8420;DHT22;4247;48.550;8.822;2023-08-20T00:49:47;21.30;99.90
8420;DHT22;4247;48.550;8.822;2023-08-20T00:52:16;21.30;99.90
8420;DHT22;4247;48.550;8.822;2023-08-20T00:54:44;21.30;99.90
8420;DHT22;4247;48.550;8.822;2023-08-20T00:57:13;21.30;99.90
8420;DHT22;4247;48.550;8.822;2023-08-20T00:59:40;21.30;99.90
8420;DHT22;4247;48.550;8.822;2023-08-20T01:02:09;21.30;99.90
8420;DHT22;4247;48.550;8.822;2023-08-20T01:04:36;21.30;99.90
8420;DHT22;4247;48.550;8.822;2023-08-20T01:07:09;21.20;99.90
8420;DHT22;4247;48.550;8.822;2023-08-20T01:09:46;21.20;99.90
8420;DHT22;4247;48.550;8.822;2023-08-20T01:12:16;21.10;99.90
8420;DHT22;4247;48.550;8.822;2023-08-20T01:14:43;21.10;99.90
8420;DHT22;4247;48.550;8.822;2023-08-20T01:17:11;21.00;99.90
8420;DHT22;4247;48.550;8.822;2023-08-20T01:19:38;21.00;99.90
8420;DHT22;4247;48.550;8.822;2023-08-20T01:22:30;21.00;99.90
8420;DHT22;4247;48.550;8.822;2023-08-20T01:25:13;21.00;99.90
8420;DHT22;4247;48.550;8.822;2023-08-20T01:27:53;21.00;99.90
8420;DHT22;4247;48.550;8.822;2023-08-20T01:30:26;21.00;99.90
8420;DHT22;4247;48.550;8.822;2023-08-20T01:32:54;21.00;99.90
8420;DHT22;4247;48.550;8.822;2023-08-20T01:35:24;21.00;99.90
8420;DHT22;4247;48.550;8.822;2023-08-20T01:37:51;21.00;99.90
8420;DHT22;4247;48.550;8.822;2023-08-20T01:40:18;20.90;99.90
8420;DHT22;4247;48.550;8.822;2023-08-20T01:42:45;20.90;99.90
8420;DHT22;4247;48.550;8.822;2023-08-20T01:45:11;20.90;99.90
8420;DHT22;4247;48.550;8.822;2023-08-20T01:47:39;20.90;99.90
8420;DHT22;4247;48.550;8.822;2023-08-20T01:50:07;20.80;99.90
8420;DHT22;4247;48.550;8.822;2023-08-20T01:52:34;20.80;99.90
8420;DHT22;4247;48.550;8.822;2023-08-20T01:55:01;20.70;99.90
8420;DHT22;4247;48.550;8.822;2023-08-20T01:57:27;20.70;99.90
8420;DHT22;4247;48.550;8.822;2023-08-20T01:59:54;20.60;99.90
8420;DHT22;4247;48.550;8.822;2023-08-20T02:02:21;20.60;99.90
8420;DHT22;4247;48.550;8.822;2023-08-20T02:04:49;20.60;99.90
8420;DHT22;4247;48.550;8.822;2023-08-20T02:07:16;20.50;99.90
8420;DHT22;4247;48.550;8.822;2023-08-20T02:09:42;20.50;99.90
8420;DHT22;4247;48.550;8.822;2023-08-20T02:12:09;20.50;99.90
8420;DHT22;4247;48.550;8.822;2023-08-20T02:14:36;20.60;99.90
8420;DHT22;4247;48.550;8.822;2023-08-20T02:17:03;20.60;99.90
8420;DHT22;4247;48.550;8.822;2023-08-20T02:19:30;20.60;99.90
8420;DHT22;4247;48.550;8.822;2023-08-20T02:21:58;20.60;99.90
8420;DHT22;4247;48.550;8.822;2023-08-20T02:24:25;20.60;99.90
8420;DHT22;4247;48.550;8.822;2023-08-20T02:26:51;20.50;99.90
8420;DHT22;4247;48.550;8.822;2023-08-20T02:29:18;20.50;99.90
8420;DHT22;4247;48.550;8.822;2023-08-20T02:31:45;20.50;99.90
8420;DHT22;4247;48.550;8.822;2023-08-20T02:34:12;20.50;99.90
8420;DHT22;4247;48.550;8.822;2023-08-20T02:36:38;20.50;99.90
8420;DHT22;4247;48.550;8.822;2023-08-20T02:39:07;20.50;99.90
8420;DHT22;4247;48.550;8.822;2023-08-20T02:41:34;20.50;99.90
8420;DHT22;4247;48.550;8.822;2023-08-20T02:44:01;20.40;99.90
8420;DHT22;4247;48.550;8.822;2023-08-20T02:46:28;20.40;99.90
8420;DHT22;4247;48.550;8.822;2023-08-20T02:48:54;20.40;99.90
8420;DHT22;4247;48.550;8.822;2023-08-20T02:51:21;20.40;99.90
8420;DHT22;4247;48.550;8.822;2023-08-20T02:53:48;20.40;99.90
8420;DHT22;4247;48.550;8.822;2023-08-20T02:56:16;20.30;99.90
8420;DHT22;4247;48.550;8.822;2023-08-20T02:58:43;20.30;99.90
8420;DHT22;4247;48.550;8.822;2023-08-20T03:01:18;20.30;99.90
8420;DHT22;4247;48.550;8.822;2023-08-20T03:03:44;20.20;99.90
8420;DHT22;4247;48.550;8.822;2023-08-20T03:06:11;20.20;99.90
8420;DHT22;4247;48.550;8.822;2023-08-20T03:08:38;20.10;99.90
8420;DHT22;4247;48.550;8.822;2023-08-20T03:11:05;20.10;99.90
8420;DHT22;4247;48.550;8.822;2023-08-20T03:13:33;20.00;99.90
8420;DHT22;4247;48.550;8.822;2023-08-20T03:16:00;20.10;99.90
8420;DHT22;4247;48.550;8.822;2023-08-20T03:18:27;20.10;99.90
8420;DHT22;4247;48.550;8.822;2023-08-20T03:20:54;20.20;99.90
8420;DHT22;4247;48.550;8.822;2023-08-20T03:23:21;20.20;99.90
8420;DHT22;4247;48.550;8.822;2023-08-20T03:25:48;20.20;99.90
8420;DHT22;4247;48.550;8.822;2023-08-20T03:28:15;20.10;99.90
8420;DHT22;4247;48.550;8.822;2023-08-20T03:30:43;20.10;99.90
8420;DHT22;4247;48.550;8.822;2023-08-20T03:33:10;20.10;99.90
8420;DHT22;4247;48.550;8.822;2023-08-20T03:35:37;20.10;99.90
8420;DHT22;4247;48.550;8.822;2023-08-20T03:38:05;20.10;99.90
8420;DHT22;4247;48.550;8.822;2023-08-20T03:40:31;20.00;99.90
8420;DHT22;4247;48.550;8.822;2023-08-20T03:42:58;20.00;99.90
8420;DHT22;4247;48.550;8.822;2023-08-20T03:45:26;19.90;99.90
8420;DHT22;4247;48.550;8.822;2023-08-20T03:47:54;19.90;99.90
8420;DHT22;4247;48.550;8.822;2023-08-20T03:50:21;19.80;99.90
8420;DHT22;4247;48.550;8.822;2023-08-20T03:52:47;19.80;99.90
8420;DHT22;4247;48.550;8.822;2023-08-20T03:55:14;19.80;99.90
8420;DHT22;4247;48.550;8.822;2023-08-20T03:57:41;19.80;99.90
8420;DHT22;4247;48.550;8.822;2023-08-20T04:00:09;19.70;99.90
8420;DHT22;4247;48.550;8.822;2023-08-20T04:02:36;19.70;99.90
8420;DHT22;4247;48.550;8.822;2023-08-20T04:05:04;19.70;99.90
8420;DHT22;4247;48.550;8.822;2023-08-20T04:07:31;19.80;99.90
8420;DHT22;4247;48.550;8.822;2023-08-20T04:09:58;19.80;99.90
8420;DHT22;4247;48.550;8.822;2023-08-20T04:12:25;19.80;99.90
8420;DHT22;4247;48.550;8.822;2023-08-20T04:14:52;19.80;99.90
8420;DHT22;4247;48.550;8.822;2023-08-20T04:17:19;19.70;99.90
8420;DHT22;4247;48.550;8.822;2023-08-20T04:19:46;19.70;99.90
8420;DHT22;4247;48.550;8.822;2023-08-20T04:22:14;19.70;99.90
8420;DHT22;4247;48.550;8.822;2023-08-20T04:24:40;19.70;99.90
8420;DHT22;4247;48.550;8.822;2023-08-20T04:27:07;19.60;99.90
8420;DHT22;4247;48.550;8.822;2023-08-20T04:29:34;19.60;99.90
8420;DHT22;4247;48.550;8.822;2023-08-20T04:32:00;19.60;99.90
8420;DHT22;4247;48.550;8.822;2023-08-20T04:34:27;19.60;99.90
8420;DHT22;4247;48.550;8.822;2023-08-20T04:36:54;19.60;99.90
8420;DHT22;4247;48.550;8.822;2023-08-20T04:39:22;19.70;99.90
8420;DHT22;4247;48.550;8.822;2023-08-20T04:41:49;19.60;99.90
8420;DHT22;4247;48.550;8.822;2023-08-20T04:44:15;19.60;99.90
8420;DHT22;4247;48.550;8.822;2023-08-20T04:46:42;19.70;99.90
8420;DHT22;4247;48.550;8.822;2023-08-20T04:49:09;19.80;99.90
8420;DHT22;4247;48.550;8.822;2023-08-20T04:51:36;19.90;99.90
8420;DHT22;4247;48.550;8.822;2023-08-20T04:54:03;19.90;99.90
8420;DHT22;4247;48.550;8.822;2023-08-20T04:56:31;20.00;99.90
8420;DHT22;4247;48.550;8.822;2023-08-20T04:58:58;20.00;99.90
8420;DHT22;4247;48.550;8.822;2023-08-20T05:01:24;20.10;99.90
8420;DHT22;4247;48.550;8.822;2023-08-20T05:03:51;20.10;99.90
8420;DHT22;4247;48.550;8.822;2023-08-20T05:06:18;20.20;99.90
8420;DHT22;4247;48.550;8.822;2023-08-20T05:08:45;20.20;99.90
8420;DHT22;4247;48.550;8.822;2023-08-20T05:11:11;20.20;99.90
8420;DHT22;4247;48.550;8.822;2023-08-20T05:13:39;20.30;99.90
8420;DHT22;4247;48.550;8.822;2023-08-20T05:16:06;20.40;99.90
8420;DHT22;4247;48.550;8.822;2023-08-20T05:18:33;20.50;99.90
8420;DHT22;4247;48.550;8.822;2023-08-20T05:20:59;20.50;99.90
8420;DHT22;4247;48.550;8.822;2023-08-20T05:23:26;20.60;99.90
8420;DHT22;4247;48.550;8.822;2023-08-20T05:25:53;20.70;99.90
8420;DHT22;4247;48.550;8.822;2023-08-20T05:28:19;20.80;99.90
8420;DHT22;4247;48.550;8.822;2023-08-20T05:30:54;20.80;99.90
8420;DHT22;4247;48.550;8.822;2023-08-20T05:33:21;20.80;99.90
8420;DHT22;4247;48.550;8.822;2023-08-20T05:35:49;20.90;99.90
8420;DHT22;4247;48.550;8.822;2023-08-20T05:38:15;20.90;99.90
8420;DHT22;4247;48.550;8.822;2023-08-20T05:40:42;21.00;99.90
8420;DHT22;4247;48.550;8.822;2023-08-20T05:43:09;21.10;99.90
8420;DHT22;4247;48.550;8.822;2023-08-20T05:45:36;21.20;99.90
8420;DHT22;4247;48.550;8.822;2023-08-20T05:48:04;21.20;99.90
8420;DHT22;4247;48.550;8.822;2023-08-20T05:50:31;21.30;99.90
8420;DHT22;4247;48.550;8.822;2023-08-20T05:52:58;21.40;99.90
8420;DHT22;4247;48.550;8.822;2023-08-20T05:55:25;21.50;99.90
8420;DHT22;4247;48.550;8.822;2023-08-20T05:57:51;21.60;99.90
8420;DHT22;4247;48.550;8.822;2023-08-20T06:00:18;21.80;99.90
8420;DHT22;4247;48.550;8.822;2023-08-20T06:02:45;21.90;99.90
8420;DHT22;4247;48.550;8.822;2023-08-20T06:05:13;22.00;99.90
8420;DHT22;4247;48.550;8.822;2023-08-20T06:07:40;22.20;99.90
8420;DHT22;4247;48.550;8.822;2023-08-20T06:10:08;22.50;99.90
8420;DHT22;4247;48.550;8.822;2023-08-20T06:12:34;22.70;99.90
8420;DHT22;4247;48.550;8.822;2023-08-20T06:15:01;22.90;99.90
8420;DHT22;4247;48.550;8.822;2023-08-20T06:17:28;23.00;99.90
8420;DHT22;4247;48.550;8.822;2023-08-20T06:19:55;23.10;99.90
8420;DHT22;4247;48.550;8.822;2023-08-20T06:22:23;23.30;99.90
8420;DHT22;4247;48.550;8.822;2023-08-20T06:24:49;23.40;99.90
8420;DHT22;4247;48.550;8.822;2023-08-20T06:27:16;23.30;99.90
8420;DHT22;4247;48.550;8.822;2023-08-20T06:29:43;23.30;99.90
8420;DHT22;4247;48.550;8.822;2023-08-20T06:32:09;23.40;99.90
8420;DHT22;4247;48.550;8.822;2023-08-20T06:34:37;23.50;99.90
8420;DHT22;4247;48.550;8.822;2023-08-20T06:37:03;23.60;99.90
8420;DHT22;4247;48.550;8.822;2023-08-20T06:39:31;23.70;99.90
8420;DHT22;4247;48.550;8.822;2023-08-20T06:41:58;23.80;99.90
8420;DHT22;4247;48.550;8.822;2023-08-20T06:44:25;23.90;99.90
8420;DHT22;4247;48.550;8.822;2023-08-20T06:46:52;24.00;99.90
8420;DHT22;4247;48.550;8.822;2023-08-20T06:49:18;24.10;99.90
8420;DHT22;4247;48.550;8.822;2023-08-20T06:51:45;24.20;99.90
8420;DHT22;4247;48.550;8.822;2023-08-20T06:54:12;24.30;99.90
8420;DHT22;4247;48.550;8.822;2023-08-20T06:56:40;24.30;99.90
8420;DHT22;4247;48.550;8.822;2023-08-20T06:59:07;24.40;99.90
8420;DHT22;4247;48.550;8.822;2023-08-20T07:01:35;24.50;99.90
8420;DHT22;4247;48.550;8.822;2023-08-20T07:04:02;24.60;99.90
8420;DHT22;4247;48.550;8.822;2023-08-20T07:06:29;24.70;99.90
8420;DHT22;4247;48.550;8.822;2023-08-20T07:08:56;24.70;99.90
8420;DHT22;4247;48.550;8.822;2023-08-20T07:11:22;24.80;99.90
8420;DHT22;4247;48.550;8.822;2023-08-20T07:13:50;24.90;99.90
8420;DHT22;4247;48.550;8.822;2023-08-20T07:16:17;25.00;99.90
8420;DHT22;4247;48.550;8.822;2023-08-20T07:18:44;25.10;99.90
8420;DHT22;4247;48.550;8.822;2023-08-20T07:21:10;25.20;99.90
8420;DHT22;4247;48.550;8.822;2023-08-20T07:23:37;25.20;99.90
8420;DHT22;4247;48.550;8.822;2023-08-20T07:26:05;25.30;99.90
8420;DHT22;4247;48.550;8.822;2023-08-20T07:28:32;25.30;99.90
8420;DHT22;4247;48.550;8.822;2023-08-20T07:31:14;25.30;99.90
8420;DHT22;4247;48.550;8.822;2023-08-20T07:33:40;25.40;99.90
8420;DHT22;4247;48.550;8.822;2023-08-20T07:36:07;25.50;99.90
8420;DHT22;4247;48.550;8.822;2023-08-20T07:38:34;25.50;99.90
8420;DHT22;4247;48.550;8.822;2023-08-20T07:41:06;25.60;99.90
8420;DHT22;4247;48.550;8.822;2023-08-20T07:43:33;25.60;99.90
8420;DHT22;4247;48.550;8.822;2023-08-20T07:46:00;25.70;99.90
8420;DHT22;4247;48.550;8.822;2023-08-20T07:48:28;25.70;99.90
8420;DHT22;4247;48.550;8.822;2023-08-20T07:50:55;25.70;99.90
8420;DHT22;4247;48.550;8.822;2023-08-20T07:53:21;25.70;99.90
8420;DHT22;4247;48.550;8.822;2023-08-20T07:55:48;25.70;99.90
8420;DHT22;4247;48.550;8.822;2023-08-20T07:58:15;25.70;99.90
8420;DHT22;4247;48.550;8.822;2023-08-20T08:00:42;25.70;99.90
8420;DHT22;4247;48.550;8.822;2023-08-20T08:03:09;25.70;99.90
8420;DHT22;4247;48.550;8.822;2023-08-20T08:05:37;25.60;99.90
8420;DHT22;4247;48.550;8.822;2023-08-20T08:08:04;25.50;99.90
8420;DHT22;4247;48.550;8.822;2023-08-20T08:10:31;25.50;99.90
8420;DHT22;4247;48.550;8.822;2023-08-20T08:12:58;25.60;99.90
8420;DHT22;4247;48.550;8.822;2023-08-20T08:15:24;25.70;99.90
8420;DHT22;4247;48.550;8.822;2023-08-20T08:17:51;25.70;99.90
8420;DHT22;4247;48.550;8.822;2023-08-20T08:20:18;25.80;99.90
8420;DHT22;4247;48.550;8.822;2023-08-20T08:22:46;25.90;99.90
8420;DHT22;4247;48.550;8.822;2023-08-20T08:25:13;26.00;99.90
8420;DHT22;4247;48.550;8.822;2023-08-20T08:27:39;26.10;99.90
8420;DHT22;4247;48.550;8.822;2023-08-20T08:30:07;26.10;99.90
8420;DHT22;4247;48.550;8.822;2023-08-20T08:32:33;26.20;99.90
8420;DHT22;4247;48.550;8.822;2023-08-20T08:35:00;26.20;99.90
8420;DHT22;4247;48.550;8.822;2023-08-20T08:37:27;26.20;99.90
8420;DHT22;4247;48.550;8.822;2023-08-20T08:39:55;26.20;99.90
8420;DHT22;4247;48.550;8.822;2023-08-20T08:42:22;26.30;99.90
8420;DHT22;4247;48.550;8.822;2023-08-20T08:44:50;26.40;99.90
8420;DHT22;4247;48.550;8.822;2023-08-20T08:47:18;26.40;99.90
8420;DHT22;4247;48.550;8.822;2023-08-20T08:49:45;26.30;99.90
8420;DHT22;4247;48.550;8.822;2023-08-20T08:52:13;26.40;99.90
8420;DHT22;4247;48.550;8.822;2023-08-20T08:54:40;26.50;99.90
8420;DHT22;4247;48.550;8.822;2023-08-20T08:57:08;26.50;99.90
8420;DHT22;4247;48.550;8.822;2023-08-20T08:59:34;26.50;99.90
8420;DHT22;4247;48.550;8.822;2023-08-20T09:02:01;26.50;99.90
8420;DHT22;4247;48.550;8.822;2023-08-20T09:04:32;26.60;99.90
8420;DHT22;4247;48.550;8.822;2023-08-20T09:06:58;26.60;99.90
8420;DHT22;4247;48.550;8.822;2023-08-20T09:09:29;26.60;99.90
8420;DHT22;4247;48.550;8.822;2023-08-20T09:11:56;26.60;99.90
8420;DHT22;4247;48.550;8.822;2023-08-20T09:14:28;26.70;99.90
8420;DHT22;4247;48.550;8.822;2023-08-20T09:16:55;26.70;99.90
8420;DHT22;4247;48.550;8.822;2023-08-20T09:19:22;26.70;99.90
8420;DHT22;4247;48.550;8.822;2023-08-20T09:21:49;26.80;99.90
8420;DHT22;4247;48.550;8.822;2023-08-20T09:24:25;26.80;99.90
8420;DHT22;4247;48.550;8.822;2023-08-20T09:26:56;26.80;99.90
8420;DHT22;4247;48.550;8.822;2023-08-20T09:29:25;26.90;99.90
8420;DHT22;4247;48.550;8.822;2023-08-20T09:32:00;26.90;99.90
8420;DHT22;4247;48.550;8.822;2023-08-20T09:34:36;27.00;99.90
8420;DHT22;4247;48.550;8.822;2023-08-20T09:37:02;27.00;99.90
8420;DHT22;4247;48.550;8.822;2023-08-20T09:39:29;27.00;99.90
8420;DHT22;4247;48.550;8.822;2023-08-20T09:41:57;27.10;99.90
8420;DHT22;4247;48.550;8.822;2023-08-20T09:44:27;27.10;99.90
8420;DHT22;4247;48.550;8.822;2023-08-20T09:46:55;27.20;99.90
8420;DHT22;4247;48.550;8.822;2023-08-20T09:49:22;27.20;99.90
8420;DHT22;4247;48.550;8.822;2023-08-20T09:51:52;27.40;99.90
8420;DHT22;4247;48.550;8.822;2023-08-20T09:54:25;27.30;99.90
8420;DHT22;4247;48.550;8.822;2023-08-20T09:56:58;27.30;99.90
8420;DHT22;4247;48.550;8.822;2023-08-20T09:59:28;27.30;99.90
8420;DHT22;4247;48.550;8.822;2023-08-20T10:01:56;27.30;99.90
8420;DHT22;4247;48.550;8.822;2023-08-20T10:04:23;27.40;99.90
8420;DHT22;4247;48.550;8.822;2023-08-20T10:06:52;27.60;99.90
8420;DHT22;4247;48.550;8.822;2023-08-20T10:09:21;27.60;99.90
8420;DHT22;4247;48.550;8.822;2023-08-20T10:11:48;27.70;99.90
8420;DHT22;4247;48.550;8.822;2023-08-20T10:14:15;27.70;99.90
8420;DHT22;4247;48.550;8.822;2023-08-20T10:16:43;27.80;99.90
8420;DHT22;4247;48.550;8.822;2023-08-20T10:19:10;27.80;99.90
8420;DHT22;4247;48.550;8.822;2023-08-20T10:21:43;27.80;99.90
8420;DHT22;4247;48.550;8.822;2023-08-20T10:24:16;27.90;99.90
8420;DHT22;4247;48.550;8.822;2023-08-20T10:26:45;28.00;99.90
8420;DHT22;4247;48.550;8.822;2023-08-20T10:29:34;28.10;99.90
8420;DHT22;4247;48.550;8.822;2023-08-20T10:32:04;28.10;99.90
8420;DHT22;4247;48.550;8.822;2023-08-20T10:34:35;28.10;99.90
8420;DHT22;4247;48.550;8.822;2023-08-20T10:37:08;28.10;99.90
8420;DHT22;4247;48.550;8.822;2023-08-20T10:39:35;28.20;99.90
8420;DHT22;4247;48.550;8.822;2023-08-20T10:42:09;28.20;99.90
8420;DHT22;4247;48.550;8.822;2023-08-20T10:44:56;28.20;99.90
8420;DHT22;4247;48.550;8.822;2023-08-20T10:47:24;28.20;99.90
8420;DHT22;4247;48.550;8.822;2023-08-20T10:49:52;28.20;99.90
8420;DHT22;4247;48.550;8.822;2023-08-20T10:52:19;28.20;99.90
8420;DHT22;4247;48.550;8.822;2023-08-20T10:54:48;28.30;99.90
8420;DHT22;4247;48.550;8.822;2023-08-20T10:57:15;28.40;99.90
8420;DHT22;4247;48.550;8.822;2023-08-20T10:59:42;28.40;99.90
8420;DHT22;4247;48.550;8.822;2023-08-20T11:02:14;28.40;99.90
8420;DHT22;4247;48.550;8.822;2023-08-20T11:04:43;28.50;99.90
8420;DHT22;4247;48.550;8.822;2023-08-20T11:07:10;28.50;99.90
8420;DHT22;4247;48.550;8.822;2023-08-20T11:09:37;28.50;99.90
8420;DHT22;4247;48.550;8.822;2023-08-20T11:12:05;28.40;99.90
8420;DHT22;4247;48.550;8.822;2023-08-20T11:14:34;28.40;99.90
8420;DHT22;4247;48.550;8.822;2023-08-20T11:17:01;28.50;99.90
8420;DHT22;4247;48.550;8.822;2023-08-20T11:19:28;28.50;99.90
8420;DHT22;4247;48.550;8.822;2023-08-20T11:21:57;28.50;99.90
8420;DHT22;4247;48.550;8.822;2023-08-20T11:24:23;28.50;99.90
8420;DHT22;4247;48.550;8.822;2023-08-20T11:26:54;28.60;99.90
8420;DHT22;4247;48.550;8.822;2023-08-20T11:29:21;28.50;99.90
8420;DHT22;4247;48.550;8.822;2023-08-20T11:31:48;28.50;99.90
8420;DHT22;4247;48.550;8.822;2023-08-20T11:34:16;28.60;99.90
8420;DHT22;4247;48.550;8.822;2023-08-20T11:36:44;28.60;99.90
8420;DHT22;4247;48.550;8.822;2023-08-20T11:39:12;28.70;99.90
8420;DHT22;4247;48.550;8.822;2023-08-20T11:41:40;28.80;99.90
8420;DHT22;4247;48.550;8.822;2023-08-20T11:44:08;28.80;99.90
8420;DHT22;4247;48.550;8.822;2023-08-20T11:46:42;28.90;99.90
8420;DHT22;4247;48.550;8.822;2023-08-20T11:49:10;28.90;99.90
8420;DHT22;4247;48.550;8.822;2023-08-20T11:51:38;29.00;99.90
8420;DHT22;4247;48.550;8.822;2023-08-20T11:54:05;29.00;99.90
8420;DHT22;4247;48.550;8.822;2023-08-20T11:56:35;29.00;99.90
8420;DHT22;4247;48.550;8.822;2023-08-20T11:59:04;29.00;99.90
8420;DHT22;4247;48.550;8.822;2023-08-20T12:01:31;29.10;99.90
8420;DHT22;4247;48.550;8.822;2023-08-20T12:04:00;29.10;99.90
8420;DHT22;4247;48.550;8.822;2023-08-20T12:06:27;29.10;99.90
8420;DHT22;4247;48.550;8.822;2023-08-20T12:08:56;29.20;99.90
8420;DHT22;4247;48.550;8.822;2023-08-20T12:11:24;29.40;99.90
8420;DHT22;4247;48.550;8.822;2023-08-20T12:13:53;29.40;99.90
8420;DHT22;4247;48.550;8.822;2023-08-20T12:16:22;29.40;99.90
8420;DHT22;4247;48.550;8.822;2023-08-20T12:18:49;29.50;99.90
8420;DHT22;4247;48.550;8.822;2023-08-20T12:21:16;29.50;99.90
8420;DHT22;4247;48.550;8.822;2023-08-20T12:23:43;29.60;99.90
8420;DHT22;4247;48.550;8.822;2023-08-20T12:26:09;29.60;99.40
8420;DHT22;4247;48.550;8.822;2023-08-20T12:28:36;29.70;99.30
8420;DHT22;4247;48.550;8.822;2023-08-20T12:31:04;29.60;99.20
8420;DHT22;4247;48.550;8.822;2023-08-20T12:33:31;29.70;99.90
8420;DHT22;4247;48.550;8.822;2023-08-20T12:35:58;29.60;99.90
8420;DHT22;4247;48.550;8.822;2023-08-20T12:38:25;29.50;97.90
8420;DHT22;4247;48.550;8.822;2023-08-20T12:40:51;29.50;99.10
8420;DHT22;4247;48.550;8.822;2023-08-20T12:43:18;29.50;98.60
8420;DHT22;4247;48.550;8.822;2023-08-20T12:45:45;29.50;98.60
8420;DHT22;4247;48.550;8.822;2023-08-20T12:48:13;29.50;99.80
8420;DHT22;4247;48.550;8.822;2023-08-20T12:50:41;29.50;98.70
8420;DHT22;4247;48.550;8.822;2023-08-20T12:53:08;29.50;98.80
8420;DHT22;4247;48.550;8.822;2023-08-20T12:55:34;29.50;97.50
8420;DHT22;4247;48.550;8.822;2023-08-20T12:58:01;29.50;98.60
8420;DHT22;4247;48.550;8.822;2023-08-20T13:00:28;29.50;98.10
8420;DHT22;4247;48.550;8.822;2023-08-20T13:02:56;29.60;98.10
8420;DHT22;4247;48.550;8.822;2023-08-20T13:05:26;29.60;99.30
8420;DHT22;4247;48.550;8.822;2023-08-20T13:07:53;29.70;97.50
8420;DHT22;4247;48.550;8.822;2023-08-20T13:10:21;29.70;97.90
8420;DHT22;4247;48.550;8.822;2023-08-20T13:12:50;29.70;98.50
8420;DHT22;4247;48.550;8.822;2023-08-20T13:15:20;29.70;97.20
8420;DHT22;4247;48.550;8.822;2023-08-20T13:17:48;29.70;97.00
8420;DHT22;4247;48.550;8.822;2023-08-20T13:20:15;29.80;96.80
8420;DHT22;4247;48.550;8.822;2023-08-20T13:22:47;29.80;97.00
8420;DHT22;4247;48.550;8.822;2023-08-20T13:25:14;29.80;96.70
8420;DHT22;4247;48.550;8.822;2023-08-20T13:27:41;29.80;97.80
8420;DHT22;4247;48.550;8.822;2023-08-20T13:30:08;29.90;95.30
8420;DHT22;4247;48.550;8.822;2023-08-20T13:32:35;29.90;95.70
8420;DHT22;4247;48.550;8.822;2023-08-20T13:35:01;30.00;95.90
8420;DHT22;4247;48.550;8.822;2023-08-20T13:37:29;30.00;96.60
8420;DHT22;4247;48.550;8.822;2023-08-20T13:39:57;30.00;96.80
8420;DHT22;4247;48.550;8.822;2023-08-20T13:42:24;30.10;97.40
8420;DHT22;4247;48.550;8.822;2023-08-20T13:44:51;30.10;94.80
8420;DHT22;4247;48.550;8.822;2023-08-20T13:47:18;30.20;95.10
8420;DHT22;4247;48.550;8.822;2023-08-20T13:49:45;30.10;95.30
8420;DHT22;4247;48.550;8.822;2023-08-20T13:52:11;30.20;96.30
8420;DHT22;4247;48.550;8.822;2023-08-20T13:54:38;30.30;95.50
8420;DHT22;4247;48.550;8.822;2023-08-20T13:57:06;30.30;95.60
8420;DHT22;4247;48.550;8.822;2023-08-20T13:59:33;30.40;96.10
8420;DHT22;4247;48.550;8.822;2023-08-20T14:01:59;30.50;94.60
8420;DHT22;4247;48.550;8.822;2023-08-20T14:04:26;30.60;95.80
8420;DHT22;4247;48.550;8.822;2023-08-20T14:06:53;30.60;94.50
8420;DHT22;4247;48.550;8.822;2023-08-20T14:09:20;30.70;94.90
8420;DHT22;4247;48.550;8.822;2023-08-20T14:11:46;30.80;94.00
8420;DHT22;4247;48.550;8.822;2023-08-20T14:14:14;30.80;95.90
8420;DHT22;4247;48.550;8.822;2023-08-20T14:16:41;30.90;93.40
8420;DHT22;4247;48.550;8.822;2023-08-20T14:19:08;31.00;95.50
8420;DHT22;4247;48.550;8.822;2023-08-20T14:21:34;31.20;94.20
8420;DHT22;4247;48.550;8.822;2023-08-20T14:24:01;31.30;94.00
8420;DHT22;4247;48.550;8.822;2023-08-20T14:26:28;31.40;94.30
8420;DHT22;4247;48.550;8.822;2023-08-20T14:28:55;31.50;92.80
8420;DHT22;4247;48.550;8.822;2023-08-20T14:31:23;31.60;93.40
8420;DHT22;4247;48.550;8.822;2023-08-20T14:33:49;31.70;92.10
8420;DHT22;4247;48.550;8.822;2023-08-20T14:36:16;31.60;92.00
8420;DHT22;4247;48.550;8.822;2023-08-20T14:38:43;31.70;94.60
8420;DHT22;4247;48.550;8.822;2023-08-20T14:41:09;31.70;91.60
8420;DHT22;4247;48.550;8.822;2023-08-20T14:43:36;31.60;92.20
8420;DHT22;4247;48.550;8.822;2023-08-20T14:46:03;31.50;92.60
8420;DHT22;4247;48.550;8.822;2023-08-20T14:48:31;31.30;93.40
8420;DHT22;4247;48.550;8.822;2023-08-20T14:50:57;31.30;94.40
8420;DHT22;4247;48.550;8.822;2023-08-20T14:53:24;31.30;94.60
8420;DHT22;4247;48.550;8.822;2023-08-20T16:16:07;29.80;97.70
8420;DHT22;4247;48.550;8.822;2023-08-20T16:18:34;29.80;97.60
8420;DHT22;4247;48.550;8.822;2023-08-20T16:21:00;29.80;98.10
8420;DHT22;4247;48.550;8.822;2023-08-20T16:23:27;29.70;97.70
8420;DHT22;4247;48.550;8.822;2023-08-20T16:25:54;29.70;98.20
8420;DHT22;4247;48.550;8.822;2023-08-20T16:28:20;29.70;98.10
8420;DHT22;4247;48.550;8.822;2023-08-20T16:30:47;29.80;98.90
8420;DHT22;4247;48.550;8.822;2023-08-20T16:33:15;29.70;98.50
8420;DHT22;4247;48.550;8.822;2023-08-20T16:35:45;29.70;98.90
8420;DHT22;4247;48.550;8.822;2023-08-20T16:38:12;29.70;99.40
8420;DHT22;4247;48.550;8.822;2023-08-20T16:40:39;29.70;99.10
8420;DHT22;4247;48.550;8.822;2023-08-20T16:43:05;29.70;99.70
8420;DHT22;4247;48.550;8.822;2023-08-20T16:45:33;29.70;98.70
8420;DHT22;4247;48.550;8.822;2023-08-20T16:48:00;29.70;99.90
8420;DHT22;4247;48.550;8.822;2023-08-20T16:50:28;29.70;99.70
8420;DHT22;4247;48.550;8.822;2023-08-20T16:52:56;29.70;99.30
8420;DHT22;4247;48.550;8.822;2023-08-20T16:55:23;29.70;99.50
8420;DHT22;4247;48.550;8.822;2023-08-20T16:57:50;29.70;99.50
8420;DHT22;4247;48.550;8.822;2023-08-20T17:00:19;29.70;99.20
8420;DHT22;4247;48.550;8.822;2023-08-20T17:02:46;29.70;99.10
8420;DHT22;4247;48.550;8.822;2023-08-20T17:05:13;29.70;99.60
8420;DHT22;4247;48.550;8.822;2023-08-20T17:07:41;29.70;99.50
8420;DHT22;4247;48.550;8.822;2023-08-20T17:10:09;29.70;99.00
8420;DHT22;4247;48.550;8.822;2023-08-20T17:12:36;29.70;99.40
8420;DHT22;4247;48.550;8.822;2023-08-20T17:15:03;29.70;99.50
8420;DHT22;4247;48.550;8.822;2023-08-20T17:17:29;29.70;99.70
8420;DHT22;4247;48.550;8.822;2023-08-20T17:19:56;29.70;99.40
8420;DHT22;4247;48.550;8.822;2023-08-20T17:22:23;29.70;99.20
8420;DHT22;4247;48.550;8.822;2023-08-20T17:24:51;29.70;99.90